Time;durP1;ratioP1;P1;durP2;ratioP2;P2;SDS_P1;SDS_P2;PMS_P1;PMS_P2;Temp;Humidity;BMP_temperature;BMP_pressure;BME280_temperature;BME280_humidity;BME280_pressure;Samples;Min_cycle;Max_cycle;Signal;HPM_P1;HPM_P2
2023/10/08 00:02:10;;;;;;;0.13;0.00;;;;;;;14.28;100.00;101035.88;5235258;28;20028;-72
2023/10/08 00:04:40;;;;;;;0.00;0.00;;;;;;;14.31;100.00;101037.53;5238950;28;20025;-72
2023/10/08 00:07:11;;;;;;;0.00;0.00;;;;;;;14.29;100.00;101042.00;5238850;28;20028;-72
2023/10/08 00:09:41;;;;;;;0.00;0.00;;;;;;;14.19;100.00;101043.31;5219395;28;20035;-72
2023/10/08 00:12:13;;;;;;;0.43;0.00;;;;;;;14.28;100.00;101051.66;5240531;28;20115;-72
2023/10/08 00:14:44;;;;;;;0.00;0.00;;;;;;;14.24;100.00;101044.81;5221164;28;22506;-72
2023/10/08 00:17:15;;;;;;;0.43;0.10;;;;;;;14.14;100.00;101040.00;5220971;28;20028;-72
2023/10/08 00:19:52;;;;;;;0.22;0.10;;;;;;;14.00;100.00;101063.38;5238601;28;20116;-73
2023/10/08 00:22:24;;;;;;;0.20;0.10;;;;;;;13.98;100.00;101073.09;5223529;28;20024;-73
2023/10/08 00:24:58;;;;;;;0.43;0.20;;;;;;;13.99;100.00;101080.06;5230722;28;20056;-72
2023/10/08 00:27:38;;;;;;;0.43;0.10;;;;;;;13.97;100.00;101090.66;5235137;28;20033;-72
2023/10/08 00:30:17;;;;;;;0.20;0.13;;;;;;;13.95;100.00;101087.22;5216636;28;20055;-72
2023/10/08 00:32:47;;;;;;;0.98;0.10;;;;;;;13.91;100.00;101085.63;5214468;28;20078;-72
2023/10/08 00:35:20;;;;;;;0.30;0.20;;;;;;;13.89;100.00;101078.75;5237573;28;20028;-72
2023/10/08 00:37:50;;;;;;;0.57;0.20;;;;;;;13.89;100.00;101065.63;5220790;28;20126;-72
2023/10/08 00:40:21;;;;;;;0.73;0.10;;;;;;;13.87;100.00;101068.28;5235516;28;20545;-72
2023/10/08 00:42:56;;;;;;;0.30;0.10;;;;;;;13.88;100.00;101074.41;5231564;28;20037;-72
2023/10/08 00:45:30;;;;;;;0.10;0.10;;;;;;;13.89;100.00;101081.38;5250647;22;20043;-73
2023/10/08 00:48:01;;;;;;;0.20;0.10;;;;;;;13.77;100.00;101093.22;5205585;28;20036;-76
2023/10/08 00:50:42;;;;;;;0.00;0.00;;;;;;;13.78;100.00;101100.19;5233159;28;20028;-75
2023/10/08 00:53:22;;;;;;;0.08;0.08;;;;;;;13.74;100.00;101113.53;5234031;28;20024;-76
2023/10/08 00:56:04;;;;;;;0.20;0.10;;;;;;;13.80;100.00;101114.13;5227649;28;20516;-74
2023/10/08 00:58:36;;;;;;;0.15;0.10;;;;;;;13.71;100.00;101118.91;5204401;28;20097;-76
2023/10/08 01:01:10;;;;;;;0.10;0.10;;;;;;;13.54;100.00;101126.59;5210435;28;20869;-76
2023/10/08 01:03:44;;;;;;;0.00;0.00;;;;;;;13.41;100.00;101146.34;5227729;28;20531;-76
2023/10/08 01:06:18;;;;;;;0.00;0.00;;;;;;;13.31;100.00;101165.97;5216915;28;20351;-76
2023/10/08 01:08:52;;;;;;;0.00;0.00;;;;;;;13.28;100.00;101156.47;5233667;28;20085;-76
2023/10/08 01:14:12;;;;;;;0.10;0.00;;;;;;;13.17;100.00;101192.75;5228878;28;20036;-76
2023/10/08 01:16:47;;;;;;;0.00;0.00;;;;;;;13.19;100.00;101201.41;5225269;28;21261;-75
2023/10/08 01:19:20;;;;;;;0.38;0.00;;;;;;;13.20;100.00;101210.16;5228699;28;20489;-77
2023/10/08 01:21:50;;;;;;;0.28;0.00;;;;;;;13.18;100.00;101218.06;5226801;28;20120;-75
2023/10/08 01:24:24;;;;;;;0.00;0.00;;;;;;;13.04;100.00;101224.72;5235609;28;20541;-76
2023/10/08 01:26:54;;;;;;;1.20;0.38;;;;;;;12.61;100.00;101231.47;5228911;28;20132;-76
2023/10/08 01:29:27;;;;;;;4.78;0.98;;;;;;;12.33;100.00;101243.75;5232408;28;20028;-73
2023/10/08 01:31:58;;;;;;;5.32;0.77;;;;;;;12.02;100.00;101243.88;5223915;28;20082;-73
2023/10/08 01:34:35;;;;;;;5.55;1.23;;;;;;;12.05;100.00;101249.00;5207419;28;20449;-74
2023/10/08 01:37:08;;;;;;;3.33;0.65;;;;;;;11.99;100.00;101270.13;5230526;28;20219;-76
2023/10/08 01:39:42;;;;;;;2.47;0.85;;;;;;;12.06;100.00;101266.44;5226907;28;20435;-76
2023/10/08 01:42:20;;;;;;;1.58;0.30;;;;;;;12.05;100.00;101267.34;5231372;28;20023;-75
2023/10/08 01:44:50;;;;;;;3.60;0.75;;;;;;;12.04;100.00;101263.00;5227109;28;20310;-73
2023/10/08 01:47:25;;;;;;;3.95;0.60;;;;;;;12.19;100.00;101272.16;5229457;28;20637;-76
2023/10/08 01:50:04;;;;;;;3.65;0.57;;;;;;;12.26;100.00;101276.31;5228497;28;20029;-76
2023/10/08 01:52:35;;;;;;;4.00;0.70;;;;;;;12.28;100.00;101279.75;5209702;28;20028;-73
2023/10/08 01:55:10;;;;;;;4.75;0.77;;;;;;;12.45;100.00;101291.41;5231255;28;20728;-75
2023/10/08 01:57:43;;;;;;;3.13;0.47;;;;;;;12.44;100.00;101294.94;5226353;28;20058;-77
2023/10/08 02:00:14;;;;;;;6.63;0.90;;;;;;;12.37;100.00;101296.03;5231730;28;20425;-76
2023/10/08 02:02:50;;;;;;;2.47;0.60;;;;;;;12.49;100.00;101286.94;5230396;28;20036;-77
2023/10/08 02:05:21;;;;;;;4.53;1.13;;;;;;;12.56;100.00;101294.56;5228833;28;20032;-77
2023/10/08 02:07:51;;;;;;;4.65;0.65;;;;;;;12.52;100.00;101297.31;5228302;28;20390;-77
2023/10/08 02:10:22;;;;;;;4.40;0.70;;;;;;;12.69;100.00;101292.38;5211344;28;20101;-76
2023/10/08 02:12:52;;;;;;;2.90;0.70;;;;;;;12.64;100.00;101304.78;5231117;28;20055;-76
2023/10/08 02:15:22;;;;;;;5.22;0.65;;;;;;;12.66;100.00;101295.09;5235416;28;20025;-75
2023/10/08 02:17:54;;;;;;;2.35;0.60;;;;;;;12.64;100.00;101300.38;5233119;28;20028;-75
2023/10/08 02:20:25;;;;;;;3.67;0.70;;;;;;;12.66;100.00;101284.63;5235536;28;20032;-73
2023/10/08 02:22:57;;;;;;;1.98;0.60;;;;;;;12.52;100.00;101287.69;5236103;28;20029;-75
2023/10/08 02:25:27;;;;;;;5.72;0.75;;;;;;;12.52;100.00;101292.06;5235519;28;20410;-75
2023/10/08 02:27:58;;;;;;;6.57;0.90;;;;;;;12.34;100.00;101297.88;5232096;28;20037;-75
2023/10/08 02:30:28;;;;;;;2.35;0.60;;;;;;;12.40;100.00;101295.94;5215083;28;20489;-76
2023/10/08 02:32:58;;;;;;;4.85;0.88;;;;;;;12.32;100.00;101300.53;5235694;28;20112;-76
2023/10/08 02:35:29;;;;;;;3.80;0.90;;;;;;;12.39;100.00;101299.47;5235797;28;20090;-76
2023/10/08 02:37:59;;;;;;;2.47;0.60;;;;;;;12.63;100.00;101306.53;5220822;28;20037;-76
2023/10/08 02:40:30;;;;;;;5.60;0.70;;;;;;;12.53;100.00;101320.88;5232737;28;20025;-77
2023/10/08 02:43:00;;;;;;;2.60;0.60;;;;;;;12.58;100.00;101329.44;5216015;28;20178;-73
2023/10/08 02:45:30;;;;;;;5.97;0.90;;;;;;;12.53;100.00;101309.50;5234599;28;20024;-77
2023/10/08 02:48:01;;;;;;;3.75;0.63;;;;;;;12.57;100.00;101291.03;5227968;28;20029;-77
2023/10/08 02:50:32;;;;;;;6.25;0.73;;;;;;;12.54;100.00;101287.63;5232672;28;20055;-76
2023/10/08 02:53:10;;;;;;;3.25;0.70;;;;;;;12.61;100.00;101292.63;5213406;28;20098;-76
2023/10/08 02:55:44;;;;;;;4.22;0.90;;;;;;;12.57;100.00;101290.16;5229800;28;20035;-77
2023/10/08 02:58:14;;;;;;;2.70;0.68;;;;;;;12.46;100.00;101293.13;5228612;28;20056;-76
2023/10/08 03:00:46;;;;;;;2.03;0.57;;;;;;;12.60;100.00;101276.97;5232036;28;20505;-76
2023/10/08 03:03:18;;;;;;;2.72;0.60;;;;;;;12.55;100.00;101263.13;5232097;28;20036;-77
2023/10/08 03:05:50;;;;;;;5.55;0.80;;;;;;;12.59;100.00;101273.47;5213297;28;20535;-73
2023/10/08 03:08:21;;;;;;;3.60;0.82;;;;;;;12.57;100.00;101277.91;5231479;28;20447;-77
2023/10/08 03:10:55;;;;;;;3.13;0.70;;;;;;;12.53;100.00;101283.28;5212103;28;20024;-77
2023/10/08 03:13:26;;;;;;;3.85;0.82;;;;;;;12.50;100.00;101297.34;5231295;28;20040;-77
2023/10/08 03:18:36;;;;;;;3.08;0.57;;;;;;;12.37;100.00;101308.28;5231315;28;20017;-77
2023/10/08 03:21:48;;;;;;;2.63;0.65;;;;;;;12.64;100.00;101321.38;5233334;28;20024;-76
2023/10/08 03:24:23;;;;;;;3.08;0.80;;;;;;;12.45;100.00;101330.72;5229864;28;20029;-76
2023/10/08 03:26:55;;;;;;;1.85;0.70;;;;;;;12.61;100.00;101331.13;5211518;28;20487;-76
2023/10/08 03:29:30;;;;;;;4.10;0.75;;;;;;;12.52;100.00;101339.25;5233090;28;20085;-77
2023/10/08 03:32:05;;;;;;;4.87;0.57;;;;;;;12.40;100.00;101318.66;5229110;28;20029;-76
2023/10/08 03:34:37;;;;;;;5.65;0.77;;;;;;;12.33;100.00;101319.78;5232921;28;20337;-77
2023/10/08 03:37:07;;;;;;;4.78;0.80;;;;;;;12.46;100.00;101327.19;5214389;28;20141;-77
2023/10/08 03:40:00;;;;;;;3.22;0.50;;;;;;;12.54;100.00;101333.06;5232889;28;20461;-77
2023/10/08 03:42:34;;;;;;;6.57;0.70;;;;;;;12.49;100.00;101337.59;5233003;28;20039;-76
2023/10/08 03:45:10;;;;;;;2.22;0.68;;;;;;;12.45;100.00;101332.50;5231342;28;20037;-77
2023/10/08 03:47:46;;;;;;;4.18;1.10;;;;;;;12.55;100.00;101341.78;5232239;28;20024;-76
2023/10/08 03:50:17;;;;;;;10.57;1.58;;;;;;;12.61;100.00;101349.47;5231622;28;20064;-76
2023/10/08 03:52:48;;;;;;;2.50;0.80;;;;;;;12.59;100.00;101353.88;5230351;28;20550;-76
2023/10/08 03:57:56;;;;;;;4.65;1.00;;;;;;;12.52;100.00;101350.63;5226835;28;20028;-76
2023/10/08 04:00:31;;;;;;;2.40;0.60;;;;;;;12.41;100.00;101336.97;5231602;28;20105;-76
2023/10/08 04:03:07;;;;;;;3.13;0.70;;;;;;;12.41;100.00;101334.34;5230168;28;20039;-78
2023/10/08 04:05:51;;;;;;;3.00;0.52;;;;;;;12.48;100.00;101343.72;5232089;28;20174;-76
2023/10/08 04:08:42;;;;;;;3.25;0.50;;;;;;;12.43;100.00;101355.28;5234069;28;20028;-77
2023/10/08 04:11:35;;;;;;;2.92;0.77;;;;;;;12.44;100.00;101357.84;5214802;28;20040;-77
2023/10/08 04:14:05;;;;;;;6.45;0.70;;;;;;;12.65;100.00;101362.41;5224164;28;20510;-77
2023/10/08 04:16:38;;;;;;;4.00;0.82;;;;;;;12.49;100.00;101361.19;5229244;28;20024;-77
2023/10/08 04:19:09;;;;;;;4.90;1.00;;;;;;;12.62;100.00;101359.06;5228181;28;20040;-77
2023/10/08 04:21:42;;;;;;;7.13;0.80;;;;;;;12.52;100.00;101355.00;5211184;28;20013;-77
2023/10/08 04:24:14;;;;;;;5.22;1.00;;;;;;;12.67;100.00;101360.59;5230115;28;20392;-76
2023/10/08 04:26:45;;;;;;;9.45;0.80;;;;;;;12.64;100.00;101373.81;5231511;28;20076;-76
2023/10/08 04:29:16;;;;;;;5.22;1.02;;;;;;;12.62;100.00;101377.41;5211019;28;20064;-76
2023/10/08 04:31:54;;;;;;;5.88;1.05;;;;;;;12.54;100.00;101382.91;5231026;28;20238;-77
2023/10/08 04:34:26;;;;;;;4.07;0.65;;;;;;;12.47;100.00;101389.22;5230291;28;20025;-73
2023/10/08 04:37:00;;;;;;;3.13;0.50;;;;;;;12.26;100.00;101410.84;5218939;28;20480;-73
2023/10/08 04:39:34;;;;;;;3.50;0.70;;;;;;;12.46;100.00;101413.72;5214031;28;20561;-77
2023/10/08 04:42:10;;;;;;;4.03;0.75;;;;;;;12.54;100.00;101403.00;5228988;28;20025;-76
2023/10/08 04:44:41;;;;;;;3.22;0.70;;;;;;;12.46;100.00;101412.88;5223412;28;20028;-77
2023/10/08 04:47:31;;;;;;;7.68;1.08;;;;;;;12.54;100.00;101409.13;5231120;28;20032;-74
2023/10/08 04:50:04;;;;;;;7.53;0.77;;;;;;;12.41;100.00;101404.25;5231490;28;20040;-77
2023/10/08 04:52:45;;;;;;;7.28;1.02;;;;;;;12.26;100.00;101394.25;5212051;28;20077;-76
2023/10/08 04:55:20;;;;;;;3.75;0.82;;;;;;;12.28;100.00;101397.69;5224925;28;20386;-77
2023/10/08 04:57:50;;;;;;;4.67;1.10;;;;;;;12.44;100.00;101398.97;5217638;28;20119;-77
2023/10/08 05:00:41;;;;;;;2.15;0.70;;;;;;;12.49;100.00;101392.66;5227340;28;20941;-77
2023/10/08 05:03:14;;;;;;;3.83;0.70;;;;;;;12.46;100.00;101392.75;5227451;28;20517;-75
2023/10/08 05:08:47;;;;;;;6.22;1.05;;;;;;;12.29;100.00;101417.75;5221181;28;20127;-77
2023/10/08 05:20:09;;;;;;;4.18;0.98;;;;;;;12.43;100.00;101440.03;5229175;28;20024;-76
2023/10/08 05:33:24;;;;;;;5.53;0.88;;;;;;;12.28;100.00;101434.38;5228928;28;20118;-77
2023/10/08 05:35:56;;;;;;;2.97;0.90;;;;;;;12.27;100.00;101454.47;5228963;28;20032;-77
2023/10/08 06:02:54;;;;;;;4.80;0.82;;;;;;;12.58;100.00;101485.91;5228080;28;20095;-75
2023/10/08 06:05:32;;;;;;;3.90;0.85;;;;;;;12.54;100.00;101485.16;5233929;28;20121;-76
2023/10/08 06:08:13;;;;;;;2.85;0.77;;;;;;;12.56;100.00;101490.34;5235700;28;20111;-77
2023/10/08 06:10:46;;;;;;;2.85;0.75;;;;;;;12.59;100.00;101499.00;5230782;28;20027;-77
2023/10/08 06:13:16;;;;;;;1.92;0.60;;;;;;;12.71;100.00;101488.16;5233247;28;20580;-77
2023/10/08 06:16:04;;;;;;;3.83;1.00;;;;;;;12.68;100.00;101483.00;5231822;28;20059;-76
2023/10/08 06:18:34;;;;;;;4.32;0.80;;;;;;;12.79;100.00;101480.91;5230029;28;20367;-75
2023/10/08 06:21:11;;;;;;;6.43;1.10;;;;;;;12.84;100.00;101489.47;5211763;28;20024;-76
2023/10/08 06:23:46;;;;;;;5.85;0.95;;;;;;;12.67;100.00;101506.63;5232029;28;20439;-77
2023/10/08 06:26:20;;;;;;;4.68;0.82;;;;;;;12.83;100.00;101529.75;5231316;28;20029;-76
2023/10/08 06:28:57;;;;;;;3.77;1.03;;;;;;;12.96;100.00;101528.50;5229381;28;20063;-75
2023/10/08 06:31:29;;;;;;;6.55;1.60;;;;;;;12.97;100.00;101529.38;5213800;28;20131;-77
2023/10/08 06:34:03;;;;;;;4.60;0.98;;;;;;;12.81;100.00;101526.31;5233793;28;20025;-75
2023/10/08 06:36:33;;;;;;;5.15;0.70;;;;;;;12.85;100.00;101530.56;5231589;28;20031;-76
2023/10/08 06:39:04;;;;;;;6.10;0.90;;;;;;;12.81;100.00;101530.72;5233101;28;20033;-75
2023/10/08 06:41:34;;;;;;;4.60;0.80;;;;;;;12.87;100.00;101526.16;5229932;28;20032;-75
2023/10/08 06:44:14;;;;;;;1.98;0.80;;;;;;;12.98;100.00;101529.31;5229087;28;20064;-75
2023/10/08 06:46:45;;;;;;;5.13;0.93;;;;;;;13.12;100.00;101550.78;5247851;22;20079;-72
2023/10/08 06:49:18;;;;;;;6.93;0.70;;;;;;;13.21;100.00;101547.88;5222931;28;20048;-72
2023/10/08 06:51:50;;;;;;;2.85;0.75;;;;;;;13.35;100.00;101556.16;5222985;28;20431;-71
2023/10/08 06:54:22;;;;;;;3.30;0.75;;;;;;;13.42;100.00;101565.59;5225551;28;20447;-72
2023/10/08 06:56:53;;;;;;;6.70;0.80;;;;;;;13.41;100.00;101567.34;5226696;28;20111;-72
2023/10/08 06:59:23;;;;;;;5.20;0.93;;;;;;;13.19;100.00;101566.28;5227466;28;20573;-72
2023/10/08 07:01:54;;;;;;;3.00;0.77;;;;;;;13.11;100.00;101568.28;5202149;28;20242;-72
2023/10/08 07:04:24;;;;;;;4.88;0.80;;;;;;;13.31;100.00;101565.91;5225800;28;20083;-71
2023/10/08 07:06:54;;;;;;;6.65;0.80;;;;;;;13.28;100.00;101571.28;5231067;28;20044;-72
2023/10/08 07:12:05;;;;;;;4.72;0.70;;;;;;;13.45;100.00;101583.88;5232270;28;20041;-72
2023/10/08 07:14:35;;;;;;;3.38;0.70;;;;;;;13.52;100.00;101602.00;5233903;28;20166;-72
2023/10/08 07:17:08;;;;;;;2.97;1.00;;;;;;;13.65;100.00;101603.34;5217949;28;20498;-72
2023/10/08 07:19:40;;;;;;;5.82;1.13;;;;;;;13.65;100.00;101590.22;5210223;28;20016;-73
2023/10/08 07:22:23;;;;;;;4.75;0.80;;;;;;;13.82;100.00;101590.53;5206421;28;20041;-72
2023/10/08 07:24:53;;;;;;;2.88;0.80;;;;;;;14.05;100.00;101600.31;5228079;28;20060;-72
2023/10/08 07:27:29;;;;;;;7.15;0.95;;;;;;;14.35;100.00;101607.16;5203939;28;20559;-72
2023/10/08 07:30:02;;;;;;;3.40;0.80;;;;;;;14.70;100.00;101601.50;5228317;28;20036;-72
2023/10/08 07:32:34;;;;;;;3.90;1.05;;;;;;;14.71;100.00;101595.34;5221862;28;21761;-72
2023/10/08 07:35:29;;;;;;;2.17;0.65;;;;;;;14.85;100.00;101589.50;5226813;28;20145;-72
2023/10/08 07:37:56;;;;;;;3.55;0.82;;;;;;;14.96;100.00;101597.88;5226308;28;20044;-72
2023/10/08 07:40:29;;;;;;;2.78;0.90;;;;;;;15.24;100.00;101592.44;5225441;28;20033;-72
2023/10/08 07:43:08;;;;;;;3.13;1.08;;;;;;;15.11;100.00;101596.44;5230467;28;20031;-71
2023/10/08 07:45:38;;;;;;;2.13;0.60;;;;;;;15.37;100.00;101604.25;5224649;28;20289;-72
2023/10/08 07:48:09;;;;;;;4.00;0.63;;;;;;;15.56;100.00;101607.88;5222210;28;20514;-72
2023/10/08 07:50:46;;;;;;;4.65;1.05;;;;;;;15.33;98.20;101611.41;5213006;28;20549;-72
2023/10/08 07:53:19;;;;;;;4.90;0.90;;;;;;;15.29;98.55;101601.03;5233249;28;20034;-72
2023/10/08 07:55:51;;;;;;;5.57;1.23;;;;;;;14.99;100.00;101602.19;5234687;28;20039;-72
2023/10/08 07:58:21;;;;;;;4.40;0.90;;;;;;;15.20;100.00;101612.75;5230809;28;20059;-72
2023/10/08 08:00:52;;;;;;;2.65;0.93;;;;;;;15.34;100.00;101614.91;5211037;28;20027;-71
2023/10/08 08:03:22;;;;;;;4.22;0.85;;;;;;;15.06;100.00;101619.47;5226548;28;20600;-72
2023/10/08 08:05:52;;;;;;;4.18;0.88;;;;;;;15.16;100.00;101621.69;5228526;28;20024;-72
2023/10/08 08:08:27;;;;;;;3.65;0.77;;;;;;;15.38;100.00;101629.69;5208496;28;20053;-72
2023/10/08 08:11:03;;;;;;;6.03;1.58;;;;;;;15.37;99.38;101633.22;5229116;28;20498;-72
2023/10/08 08:13:34;;;;;;;5.28;0.77;;;;;;;15.28;96.29;101633.53;5209185;28;20319;-72
2023/10/08 08:16:18;;;;;;;4.05;0.68;;;;;;;15.17;96.17;101628.69;5209889;28;20115;-72
2023/10/08 08:18:51;;;;;;;7.38;0.80;;;;;;;15.20;97.04;101628.56;5210521;28;20119;-72
2023/10/08 08:21:23;;;;;;;5.28;1.02;;;;;;;15.25;94.94;101636.28;5223266;28;20036;-72
2023/10/08 08:24:04;;;;;;;3.03;0.63;;;;;;;15.48;93.99;101629.25;5211214;28;20070;-72
2023/10/08 08:26:58;;;;;;;2.95;0.73;;;;;;;15.77;93.53;101636.91;5229432;28;20217;-72
2023/10/08 08:29:33;;;;;;;4.63;1.17;;;;;;;15.63;91.86;101644.47;5227906;28;20033;-72
2023/10/08 08:32:04;;;;;;;4.00;0.77;;;;;;;15.64;93.54;101635.66;5227804;28;20029;-72
2023/10/08 08:34:35;;;;;;;7.25;1.10;;;;;;;15.64;91.44;101640.06;5226966;28;20470;-72
2023/10/08 08:37:06;;;;;;;3.58;0.73;;;;;;;16.57;88.94;101647.59;5211882;28;20029;-72
2023/10/08 08:39:38;;;;;;;3.10;0.70;;;;;;;16.75;84.44;101652.06;5229137;28;20036;-72
2023/10/08 08:42:08;;;;;;;3.75;1.00;;;;;;;16.96;83.77;101645.88;5229331;28;20031;-72
2023/10/08 08:44:50;;;;;;;2.03;0.65;;;;;;;16.92;82.25;101654.84;5227891;28;20402;-72
2023/10/08 08:47:24;;;;;;;3.10;0.70;;;;;;;16.76;82.90;101647.66;5225597;28;20533;-72
2023/10/08 08:50:00;;;;;;;5.25;0.65;;;;;;;16.80;82.46;101640.38;5230225;28;20319;-72
2023/10/08 08:52:30;;;;;;;4.00;0.70;;;;;;;16.49;85.33;101655.00;5209335;28;20036;-72
2023/10/08 08:55:06;;;;;;;4.05;0.70;;;;;;;16.73;84.62;101653.94;5213287;28;20086;-71
2023/10/08 08:57:39;;;;;;;3.15;0.70;;;;;;;16.42;82.81;101666.72;5226980;28;20063;-72
2023/10/08 09:00:14;;;;;;;3.20;0.70;;;;;;;16.59;81.73;101677.41;5228644;28;20166;-71
2023/10/08 09:02:47;;;;;;;3.13;0.68;;;;;;;16.72;78.99;101680.41;5226190;28;20197;-72
2023/10/08 09:05:24;;;;;;;7.30;0.88;;;;;;;16.65;79.68;101679.81;5229225;28;20072;-72
2023/10/08 09:08:06;;;;;;;3.35;0.60;;;;;;;16.84;79.50;101689.50;5228326;28;20195;-73
2023/10/08 09:10:38;;;;;;;3.60;0.77;;;;;;;16.87;78.22;101696.44;5205116;28;20617;-72
2023/10/08 09:13:09;;;;;;;6.10;1.33;;;;;;;17.07;78.99;101683.22;5212103;28;20044;-73
2023/10/08 09:15:39;;;;;;;4.57;0.88;;;;;;;17.07;78.15;101685.84;5210205;28;20087;-73
2023/10/08 09:18:09;;;;;;;3.72;0.75;;;;;;;17.53;78.54;101698.75;5227241;28;20826;-72
2023/10/08 09:20:43;;;;;;;2.58;0.60;;;;;;;17.40;76.41;101701.09;5208181;28;20460;-73
2023/10/08 09:23:17;;;;;;;4.28;0.77;;;;;;;17.28;77.22;101703.41;5234810;28;20028;-72
2023/10/08 09:25:51;;;;;;;3.38;0.75;;;;;;;17.49;73.92;101699.81;5231503;28;20071;-72
2023/10/08 09:28:25;;;;;;;4.43;0.70;;;;;;;17.40;74.94;101706.38;5229608;28;20040;-72
2023/10/08 09:30:58;;;;;;;5.35;0.90;;;;;;;17.33;74.62;101706.69;5211690;28;20127;-72
2023/10/08 09:33:29;;;;;;;4.78;0.70;;;;;;;17.39;76.17;101703.81;5224445;28;20416;-72
2023/10/08 09:36:02;;;;;;;3.72;0.70;;;;;;;17.01;76.72;101699.34;5228976;28;20036;-72
2023/10/08 09:38:36;;;;;;;2.75;0.75;;;;;;;17.22;77.41;101706.31;5228137;28;20478;-72
2023/10/08 09:41:08;;;;;;;4.95;0.80;;;;;;;17.03;76.81;101711.56;5205868;28;20129;-72
2023/10/08 09:43:41;;;;;;;6.55;0.98;;;;;;;17.12;76.92;101710.31;5226948;28;20215;-72
2023/10/08 09:46:36;;;;;;;3.30;0.77;;;;;;;17.23;77.21;101708.91;5228973;28;20063;-73
2023/10/08 09:49:12;;;;;;;3.33;0.60;;;;;;;17.36;77.18;101709.22;5229757;28;20029;-72
2023/10/08 09:51:43;;;;;;;3.58;0.70;;;;;;;16.79;78.03;101719.69;5201394;28;20128;-72
2023/10/08 09:54:38;;;;;;;4.43;0.80;;;;;;;17.00;74.60;101730.16;5230014;28;20033;-72
2023/10/08 09:57:10;;;;;;;4.72;0.98;;;;;;;16.39;75.38;101722.28;5213791;28;20070;-72
2023/10/08 09:59:41;;;;;;;5.25;0.77;;;;;;;16.73;77.06;101727.03;5209557;28;20035;-72
2023/10/08 10:02:12;;;;;;;2.25;0.70;;;;;;;16.80;77.94;101724.91;5206797;28;20422;-72
2023/10/08 10:04:45;;;;;;;6.38;0.90;;;;;;;16.95;75.44;101724.25;5226239;28;20025;-72
2023/10/08 10:07:16;;;;;;;3.47;0.90;;;;;;;16.95;75.29;101728.69;5228266;28;20661;-72
2023/10/08 10:09:50;;;;;;;5.00;0.88;;;;;;;16.44;77.32;101722.09;5209623;28;20029;-72
2023/10/08 10:12:26;;;;;;;3.30;0.70;;;;;;;16.60;77.72;101717.88;5226871;28;20049;-72
2023/10/08 10:14:57;;;;;;;4.18;0.70;;;;;;;16.23;79.15;101721.13;5209039;28;20036;-71
2023/10/08 10:17:31;;;;;;;6.25;0.80;;;;;;;16.77;78.36;101718.91;5209632;28;20047;-72
2023/10/08 10:20:02;;;;;;;4.13;0.70;;;;;;;16.86;76.98;101718.50;5230587;28;20380;-72
2023/10/08 10:22:35;;;;;;;4.55;0.90;;;;;;;16.94;74.37;101719.88;5209293;28;20054;-72
2023/10/08 10:25:17;;;;;;;3.78;0.77;;;;;;;16.55;72.58;101728.63;5225553;28;20162;-71
2023/10/08 10:27:51;;;;;;;3.58;0.98;;;;;;;16.61;73.16;101731.03;5208592;28;20035;-72
2023/10/08 10:30:23;;;;;;;4.63;0.88;;;;;;;16.75;72.98;101731.28;5223872;28;20119;-73
2023/10/08 10:32:54;;;;;;;4.70;1.10;;;;;;;16.88;72.17;101737.78;5207633;28;20126;-72
2023/10/08 10:35:27;;;;;;;4.63;0.88;;;;;;;16.79;71.95;101733.75;5207932;28;20081;-71
2023/10/08 10:38:03;;;;;;;4.75;0.88;;;;;;;16.67;69.50;101730.78;5226187;28;20044;-71
2023/10/08 10:40:39;;;;;;;4.10;0.80;;;;;;;16.51;69.05;101737.59;5207780;28;20104;-71
2023/10/08 10:43:09;;;;;;;3.60;0.60;;;;;;;16.46;68.60;101736.94;5223005;28;20051;-71
2023/10/08 10:45:43;;;;;;;13.13;1.08;;;;;;;16.39;69.95;101738.09;5228062;28;20436;-71
2023/10/08 10:51:07;;;;;;;6.55;0.77;;;;;;;16.52;68.72;101736.69;5226424;28;20416;-72
2023/10/08 10:53:56;;;;;;;4.05;0.77;;;;;;;16.51;70.42;101737.59;5208920;28;20041;-71
2023/10/08 10:56:29;;;;;;;6.53;0.88;;;;;;;16.55;72.02;101736.56;5225824;28;20020;-71
2023/10/08 10:59:06;;;;;;;3.78;0.50;;;;;;;16.66;69.59;101741.38;5208016;28;20044;-71
2023/10/08 11:01:46;;;;;;;3.40;0.70;;;;;;;16.70;70.40;101746.47;5222693;28;20103;-71
2023/10/08 11:04:17;;;;;;;3.75;0.98;;;;;;;16.69;69.59;101752.69;5206771;28;20367;-71
2023/10/08 11:06:50;;;;;;;3.75;0.70;;;;;;;16.71;67.42;101753.47;5226952;28;20031;-72
2023/10/08 11:09:36;;;;;;;3.72;0.88;;;;;;;16.82;68.44;101743.31;5224008;28;20564;-72
2023/10/08 11:12:13;;;;;;;4.73;1.27;;;;;;;16.82;69.18;101740.69;5223923;28;20090;-72
2023/10/08 11:14:46;;;;;;;4.35;0.63;;;;;;;16.95;70.81;101753.28;5230572;28;20286;-72
2023/10/08 11:17:22;;;;;;;3.92;0.77;;;;;;;16.83;69.78;101752.97;5227558;28;20382;-71
2023/10/08 11:19:53;;;;;;;3.92;0.82;;;;;;;16.86;71.17;101752.84;5227576;28;20036;-72
2023/10/08 11:22:42;;;;;;;4.35;1.00;;;;;;;16.87;73.77;101736.94;5205496;28;20063;-72
2023/10/08 11:25:30;;;;;;;2.67;0.63;;;;;;;16.01;71.56;101749.31;5226311;28;20087;-72
2023/10/08 11:28:09;;;;;;;5.05;0.93;;;;;;;15.81;71.99;101749.22;5209800;28;20493;-72
2023/10/08 11:30:42;;;;;;;4.22;0.77;;;;;;;15.60;73.11;101734.22;5208452;28;20052;-72
2023/10/08 11:33:15;;;;;;;3.78;0.80;;;;;;;15.69;71.63;101725.94;5225962;28;20032;-72
2023/10/08 11:36:19;;;;;;;3.65;0.80;;;;;;;15.63;68.23;101743.75;5204172;28;20040;-72
2023/10/08 11:38:53;;;;;;;2.88;0.80;;;;;;;15.42;68.45;101734.91;5204613;28;20115;-72
2023/10/08 11:41:27;;;;;;;5.32;1.10;;;;;;;15.65;69.08;101741.94;5207457;28;20029;-72
2023/10/08 11:43:58;;;;;;;7.50;1.05;;;;;;;15.78;69.50;101730.88;5220494;28;20025;-72
2023/10/08 11:46:38;;;;;;;4.97;0.80;;;;;;;15.56;68.99;101708.88;5222694;28;20032;-71
2023/10/08 11:49:17;;;;;;;6.00;1.10;;;;;;;15.71;69.55;101718.84;5201728;28;20037;-72
2023/10/08 11:51:48;;;;;;;2.10;0.80;;;;;;;16.14;67.20;101716.25;5220487;28;20039;-72
2023/10/08 11:54:20;;;;;;;3.90;0.88;;;;;;;16.25;69.92;101721.94;5222878;28;20032;-71
2023/10/08 11:56:50;;;;;;;1.50;0.60;;;;;;;16.33;70.59;101724.25;5225731;28;20063;-72
2023/10/08 11:59:24;;;;;;;4.30;0.73;;;;;;;16.42;68.71;101727.41;5225985;28;20313;-72
2023/10/08 12:01:56;;;;;;;3.10;0.73;;;;;;;16.41;71.57;101728.34;5208210;28;20047;-72
2023/10/08 12:04:29;;;;;;;4.47;0.77;;;;;;;16.44;70.87;101722.09;5225408;28;20401;-72
2023/10/08 12:07:02;;;;;;;6.45;0.98;;;;;;;16.22;71.85;101702.75;5224585;28;20032;-71
2023/10/08 12:09:37;;;;;;;2.75;0.77;;;;;;;16.42;72.96;101674.63;5225094;28;20130;-72
2023/10/08 12:12:09;;;;;;;3.92;1.15;;;;;;;16.06;74.95;101676.13;5204476;28;20043;-72
2023/10/08 12:14:39;;;;;;;4.30;0.80;;;;;;;16.01;70.95;101704.47;5224874;28;20025;-72
2023/10/08 12:17:11;;;;;;;3.20;0.90;;;;;;;16.49;71.07;101712.19;5209567;28;20040;-73
2023/10/08 12:19:42;;;;;;;3.05;0.52;;;;;;;16.54;69.77;101704.97;5213238;28;20535;-71
2023/10/08 12:22:17;;;;;;;2.20;0.70;;;;;;;16.56;68.95;101721.59;5224141;28;20048;-72
2023/10/08 12:24:48;;;;;;;3.05;0.80;;;;;;;16.53;69.60;101712.00;5202288;28;20032;-72
2023/10/08 12:27:18;;;;;;;4.90;1.15;;;;;;;16.40;71.50;101725.78;5219473;28;20045;-72
2023/10/08 12:29:50;;;;;;;5.40;0.80;;;;;;;16.63;71.17;101730.94;5208854;28;20071;-72
2023/10/08 12:32:26;;;;;;;5.35;1.23;;;;;;;16.65;69.79;101723.81;5207220;28;20040;-72
2023/10/08 12:34:56;;;;;;;3.70;0.75;;;;;;;16.50;69.94;101730.63;5208852;28;20505;-72
2023/10/08 12:37:27;;;;;;;2.90;0.90;;;;;;;16.56;69.37;101709.22;5226393;28;20052;-72
2023/10/08 12:40:11;;;;;;;4.95;0.90;;;;;;;16.46;70.26;101700.00;5208515;28;20543;-71
2023/10/08 12:42:44;;;;;;;5.13;1.00;;;;;;;16.46;70.86;101689.44;5225887;28;20040;-72
2023/10/08 12:45:20;;;;;;;1.60;0.70;;;;;;;16.43;73.60;101692.22;5209830;28;20180;-72
2023/10/08 12:47:51;;;;;;;3.55;0.90;;;;;;;16.51;72.18;101690.09;5227950;28;20039;-72
2023/10/08 12:50:29;;;;;;;6.03;0.90;;;;;;;16.48;73.41;101686.72;5226495;28;20240;-72
2023/10/08 12:53:03;;;;;;;5.15;0.80;;;;;;;16.31;68.01;101692.69;5221678;28;20051;-71